Flight Track Log - Related Links

Times and Time Zones

All times are in EDT time to prevent confusion due to time zone crossing. See the UAL4588 flight status page for this flight to view local times or setup timezone preferences in your user account.

Time Position Orientation Groundspeed Altitude Reporting Facility
EDT Latitude Longitude Course Direction KTS MPH feet Rate Location/Type
Mon 08:09:07 PM 42.8153 -85.4892 131° Southeast 248 285 5,700  Level Chicago Center
Mon 08:10:09 PM 42.7964 -85.3914 105° East 263 303 8,400 2,226 Climbing Chicago Center
Mon 08:11:00 PM 42.7433 -84.9707 107° East  Level FlightAware Approximate
Mon 08:11:11 PM 42.7731 -85.2825 106° East 294 338 10,300  Level Chicago Center
Mon 08:12:00 PM 42.7114 -84.8327 107° East  Level FlightAware Approximate
Mon 08:12:13 PM 42.7461 -85.1522 106° East 347 399 11,300  Level Chicago Center
Mon 08:13:00 PM 42.6777 -84.6830 107° East  Level FlightAware Approximate
Mon 08:13:15 PM 42.7161 -85.0083 106° East 389 448 12,900  Level Chicago Center
Mon 08:14:17 PM 42.6853 -84.8628 106° East 400 460 14,600 1,016 Climbing Chicago Center
Mon 08:15:19 PM 42.6464 -84.6797 106° East 420 483 15,000 629 Climbing Chicago Center
Mon 08:16:21 PM 42.6133 -84.5236 106° East 429 494 15,900 918 Climbing Chicago Center
Mon 08:16:44 PM 42.6008 -84.4761 110° East 426 490 16,300 1,214 Climbing Cleveland Center
Mon 08:17:45 PM 42.5661 -84.3217 107° East 426 490 17,600 1,388 Climbing Cleveland Center
Mon 08:18:45 PM 42.5336 -84.1675 106° East 426 490 19,100 1,400 Climbing Cleveland Center
Mon 08:19:45 PM 42.4986 -84.0133 107° East 426 490 20,400 1,350 Climbing Cleveland Center
Mon 08:20:45 PM 42.4658 -83.8567 106° East 426 490 21,800 1,350 Climbing Cleveland Center
Mon 08:21:45 PM 42.4303 -83.7031 107° East 426 490 23,100 1,100 Climbing Cleveland Center
Mon 08:22:45 PM 42.3969 -83.5439 106° East 426 490 24,000 450 Climbing Cleveland Center
Mon 08:23:45 PM 42.3617 -83.3792 106° East 444 511 24,000 450 Level Cleveland Center
Mon 08:24:45 PM 42.3206 -83.1781 105° East 474 545 24,900 500 Climbing Cleveland Center
Mon 08:25:45 PM 42.2828 -82.9967 106° East 492 566 25,000 50 Climbing Cleveland Center
Mon 08:26:45 PM 42.2489 -82.8103 104° East 503 579 25,000  Level Cleveland Center
Mon 08:27:45 PM 42.2297 -82.6161 98° East 509 586 25,000  Level Cleveland Center
Mon 08:28:45 PM 42.2142 -82.4194 96° East 520 598 25,000  Level Cleveland Center
Mon 08:29:45 PM 42.1964 -82.2228 97° East 526 605 25,000  Level Cleveland Center
Mon 08:30:45 PM 42.1800 -82.0317 97° East 521 600 25,000  Level Cleveland Center
Mon 08:31:45 PM 42.1803 -81.8442 90° East 510 587 25,000  Level Cleveland Center
Mon 08:32:44 PM 42.1842 -81.6592 88° East 495 570 25,000  Level Cleveland Center
Mon 08:33:45 PM 42.1878 -81.4772 88° East 490 564 25,000  Level Cleveland Center
Mon 08:34:44 PM 42.1847 -81.3117 91° East 490 564 25,000  Level Cleveland Center
Mon 08:35:44 PM 42.1567 -81.1378 102° East 485 558 25,000  Level Cleveland Center
Mon 08:36:45 PM 42.1219 -80.9583 105° East 485 558 25,000  Level Cleveland Center
Mon 08:37:44 PM 42.0889 -80.7817 104° East 485 558 25,000 -50 Level Cleveland Center
Mon 08:38:45 PM 42.0539 -80.6056 105° East 479 551 24,900 -500 Descending Cleveland Center
Mon 08:39:44 PM 42.0161 -80.4069 104° East 490 564 24,000 -1,059 Descending Cleveland Center
Mon 08:40:44 PM 41.9781 -80.2256 106° East 495 570 22,800 -1,300 Descending Cleveland Center
Mon 08:41:44 PM 41.9442 -80.0500 104° East 490 564 21,400 -900 Descending Cleveland Center
Mon 08:42:44 PM 41.9119 -79.8856 105° East 464 534 21,000 -198 Descending Cleveland Center
Mon 08:43:45 PM 41.8797 -79.7242 105° East 458 527 21,000  Level Cleveland Center
Mon 08:44:44 PM 41.8492 -79.5742 105° East 453 521 21,000  Level Cleveland Center
Mon 08:45:45 PM 41.8164 -79.4103 105° East 453 521 21,000  Level Cleveland Center
Mon 08:46:44 PM 41.7483 -79.2750 124° Southeast 440 506 21,000  Level Cleveland Center
Mon 08:47:44 PM 41.6575 -79.1769 141° Southeast 419 482 21,000  Level Cleveland Center
Mon 08:48:45 PM 41.5850 -79.0536 128° Southeast 419 482 21,000  Level Cleveland Center
Mon 08:49:45 PM 41.5661 -78.8875 99° East 416 479 21,000  Level Cleveland Center
Mon 08:50:45 PM 41.5572 -78.7183 94° East 433 498 21,000  Level Cleveland Center
Mon 08:51:45 PM 41.5458 -78.5411 95° East 456 525 21,000  Level Cleveland Center
Mon 08:52:54 PM 41.5358 -78.3483 94° East 481 554 21,000  Level New York Center
Mon 08:53:53 PM 41.5258 -78.1753 94° East 481 554 21,000  Level New York Center
Mon 08:54:54 PM 41.5128 -77.9828 95° East 481 554 21,000  Level New York Center
Mon 08:55:51 PM 41.4894 -77.8139 100° East 470 541 21,000  Level New York Center
Mon 08:56:52 PM 41.4661 -77.6453 100° East 470 541 21,000  Level New York Center
Mon 08:57:53 PM 41.4406 -77.4739 101° East 465 535 21,000  Level New York Center
Mon 08:58:53 PM 41.4164 -77.3081 101° East 465 535 21,000  Level New York Center
Mon 08:59:53 PM 41.3919 -77.1453 101° East 453 521 21,000  Level New York Center
Mon 09:00:53 PM 41.3672 -76.9825 101° East 453 521 21,000  Level New York Center
Mon 09:01:52 PM 41.3425 -76.8172 101° East 448 516 21,000  Level New York Center
Mon 09:02:52 PM 41.3044 -76.6592 108° East 453 521 21,000  Level New York Center
Mon 09:03:54 PM 41.2622 -76.5008 109° East 453 521 21,000 -500 Level New York Center
Mon 09:04:52 PM 41.2233 -76.3569 110° East 459 528 20,000 -1,311 Descending New York Center
Mon 09:05:53 PM 41.1794 -76.1822 108° East 459 528 18,400 -1,587 Descending New York Center
Mon 09:06:53 PM 41.1361 -76.0300 111° Southeast 454 522 16,800 -1,600 Descending New York Center
Mon 09:07:53 PM 41.0986 -75.8922 110° East 449 517 15,200 -1,780 Descending New York Center
Mon 09:08:51 PM 41.0575 -75.7322 109° East 423 487 13,300 -1,664 Descending New York Center
Mon 09:09:52 PM 41.0192 -75.5975 111° Southeast 400 460 11,900 -1,240 Descending New York Center
Mon 09:10:52 PM 40.9825 -75.4739 111° Southeast 363 418 10,800 -992 Descending New York Center
Mon 09:11:53 PM 40.9553 -75.3731 110° East 340 391 9,900 -992 Descending New York Center
Mon 09:12:53 PM 40.9242 -75.2639 111° Southeast 320 368 8,800 -1,140 Descending New York Center
Mon 09:13:54 PM 40.8947 -75.1550 110° East 294 338 7,600 -908 Descending New York Center
Mon 09:14:52 PM 40.8672 -75.0572 110° East 288 331 7,000 -305 Descending New York Center
Mon 09:15:52 PM 40.8372 -74.9619 113° Southeast 288 331 7,000 -99 Level New York Center
Mon 09:16:53 PM 40.8094 -74.8644 111° Southeast 288 331 6,800 -443 Descending New York Center
Mon 09:17:54 PM 40.8042 -74.7708 94° East 253 291 6,100 -407 Descending New York Center
Mon 09:18:51 PM 40.8508 -74.6858 54° Northeast 258 297 6,000 -51 Descending New York Center
Mon 09:19:51 PM 40.8933 -74.5975 58° Northeast 272 313 6,000 -443 Level New York Center
Mon 09:20:53 PM 40.9133 -74.4972 75° East 278 320 5,100 -488 Descending New York Center
Mon 09:21:54 PM 40.9328 -74.4022 75° East 273 314 5,000 -162 Descending New York Center
Mon 09:22:44 PM 40.9500 -74.3167 75° East 278 320 4,800 -388 Descending New York TRACON
Mon 09:24:44 PM 40.9000 -74.1333 110° East 257 296 3,900 -567 Descending New York TRACON
Mon 09:25:44 PM 40.8667 -74.0833 131° Southeast 208 239 3,100 -600 Descending New York TRACON
Mon 09:26:44 PM 40.8167 -74.0833 180° South 157 181 2,700 -600 Descending New York TRACON
Mon 09:27:44 PM 40.7833 -74.1167 217° Southwest 150 173 1,900 -800 Descending New York TRACON

Login

Don't have an account? Register now (free) for customized features, flight alerts, and more!